sensor_id;sensor_type;location;lat;lon;timestamp;pressure;altitude;pressure_sealevel;temperature;humidity
73600;BME280;61877;48.246;9.220;2024-03-23T00:53:59;93570.56;;;3.15;100.00
73600;BME280;61877;48.246;9.220;2024-03-23T00:56:24;93573.78;;;3.04;100.00
73600;BME280;61877;48.246;9.220;2024-03-23T00:58:50;93573.31;;;3.02;100.00
73600;BME280;61877;48.246;9.220;2024-03-23T01:01:16;93575.47;;;3.00;100.00
73600;BME280;61877;48.246;9.220;2024-03-23T01:03:41;93567.06;;;2.98;100.00
73600;BME280;61877;48.246;9.220;2024-03-23T01:06:07;93573.06;;;3.12;100.00
73600;BME280;61877;48.246;9.220;2024-03-23T01:08:33;93562.66;;;3.24;100.00
73600;BME280;61877;48.246;9.220;2024-03-23T01:11:01;93555.94;;;3.18;100.00
73600;BME280;61877;48.246;9.220;2024-03-23T01:13:27;93549.97;;;3.12;100.00
73600;BME280;61877;48.246;9.220;2024-03-23T01:15:54;93548.25;;;3.08;100.00
73600;BME280;61877;48.246;9.220;2024-03-23T01:18:21;93543.56;;;3.05;100.00
73600;BME280;61877;48.246;9.220;2024-03-23T01:20:47;93542.91;;;2.99;100.00
73600;BME280;61877;48.246;9.220;2024-03-23T01:23:13;93548.81;;;2.96;100.00
73600;BME280;61877;48.246;9.220;2024-03-23T01:25:39;93545.38;;;2.96;100.00
73600;BME280;61877;48.246;9.220;2024-03-23T01:28:06;93540.88;;;2.96;100.00
73600;BME280;61877;48.246;9.220;2024-03-23T01:30:32;93542.53;;;2.92;100.00
73600;BME280;61877;48.246;9.220;2024-03-23T01:32:58;93542.53;;;2.92;100.00
73600;BME280;61877;48.246;9.220;2024-03-23T01:35:24;93541.97;;;3.04;100.00
73600;BME280;61877;48.246;9.220;2024-03-23T01:37:50;93533.78;;;3.14;100.00
73600;BME280;61877;48.246;9.220;2024-03-23T01:40:17;93527.34;;;3.06;100.00
73600;BME280;61877;48.246;9.220;2024-03-23T01:42:42;93524.09;;;3.09;100.00
73600;BME280;61877;48.246;9.220;2024-03-23T01:45:10;93529.28;;;3.14;100.00
73600;BME280;61877;48.246;9.220;2024-03-23T01:47:35;93520.91;;;3.29;100.00
73600;BME280;61877;48.246;9.220;2024-03-23T01:50:01;93522.66;;;3.34;100.00
73600;BME280;61877;48.246;9.220;2024-03-23T01:52:27;93522.22;;;3.40;100.00
73600;BME280;61877;48.246;9.220;2024-03-23T01:54:53;93507.72;;;3.38;100.00
73600;BME280;61877;48.246;9.220;2024-03-23T01:57:19;93505.03;;;3.29;100.00
73600;BME280;61877;48.246;9.220;2024-03-23T01:59:44;93504.06;;;3.25;100.00
73600;BME280;61877;48.246;9.220;2024-03-23T02:02:11;93503.72;;;3.18;100.00
73600;BME280;61877;48.246;9.220;2024-03-23T02:04:37;93488.91;;;3.17;100.00
73600;BME280;61877;48.246;9.220;2024-03-23T02:07:03;93485.19;;;3.18;100.00
73600;BME280;61877;48.246;9.220;2024-03-23T02:09:29;93490.94;;;3.20;100.00
73600;BME280;61877;48.246;9.220;2024-03-23T02:11:55;93485.31;;;3.13;100.00
73600;BME280;61877;48.246;9.220;2024-03-23T02:14:21;93483.88;;;3.07;100.00
73600;BME280;61877;48.246;9.220;2024-03-23T02:16:47;93480.47;;;3.07;100.00
73600;BME280;61877;48.246;9.220;2024-03-23T02:19:17;93476.06;;;3.02;100.00
73600;BME280;61877;48.246;9.220;2024-03-23T02:21:43;93466.84;;;3.00;100.00
73600;BME280;61877;48.246;9.220;2024-03-23T02:24:10;93456.56;;;2.98;100.00
73600;BME280;61877;48.246;9.220;2024-03-23T02:26:35;93457.03;;;3.00;100.00
73600;BME280;61877;48.246;9.220;2024-03-23T02:29:01;93453.63;;;3.00;100.00
73600;BME280;61877;48.246;9.220;2024-03-23T02:31:27;93446.72;;;2.99;100.00
73600;BME280;61877;48.246;9.220;2024-03-23T02:33:53;93441.25;;;2.95;100.00
73600;BME280;61877;48.246;9.220;2024-03-23T02:36:18;93432.88;;;2.93;100.00
73600;BME280;61877;48.246;9.220;2024-03-23T02:38:44;93433.31;;;2.95;100.00
73600;BME280;61877;48.246;9.220;2024-03-23T02:41:13;93425.38;;;2.95;100.00
73600;BME280;61877;48.246;9.220;2024-03-23T02:43:39;93401.88;;;3.02;100.00
73600;BME280;61877;48.246;9.220;2024-03-23T02:46:04;93402.94;;;2.93;100.00
73600;BME280;61877;48.246;9.220;2024-03-23T02:48:30;93403.38;;;2.86;100.00
73600;BME280;61877;48.246;9.220;2024-03-23T02:50:56;93415.66;;;2.82;100.00
73600;BME280;61877;48.246;9.220;2024-03-23T02:53:21;93413.66;;;2.88;100.00
73600;BME280;61877;48.246;9.220;2024-03-23T02:55:47;93416.94;;;2.85;100.00
73600;BME280;61877;48.246;9.220;2024-03-23T02:58:17;93410.97;;;2.79;100.00
73600;BME280;61877;48.246;9.220;2024-03-23T03:00:42;93413.13;;;2.77;100.00
73600;BME280;61877;48.246;9.220;2024-03-23T03:03:08;93410.72;;;2.89;100.00
73600;BME280;61877;48.246;9.220;2024-03-23T03:05:34;93409.78;;;2.85;100.00
73600;BME280;61877;48.246;9.220;2024-03-23T03:08:00;93408.38;;;2.88;100.00
73600;BME280;61877;48.246;9.220;2024-03-23T03:10:25;93410.34;;;2.82;100.00
73600;BME280;61877;48.246;9.220;2024-03-23T03:12:51;93410.72;;;2.89;100.00
73600;BME280;61877;48.246;9.220;2024-03-23T03:15:18;93414.44;;;2.88;100.00
73600;BME280;61877;48.246;9.220;2024-03-23T03:17:44;93415.38;;;2.92;100.00
73600;BME280;61877;48.246;9.220;2024-03-23T03:20:10;93406.22;;;2.98;100.00
73600;BME280;61877;48.246;9.220;2024-03-23T03:22:36;93401.72;;;3.07;100.00
73600;BME280;61877;48.246;9.220;2024-03-23T03:25:02;93406.88;;;3.12;100.00
73600;BME280;61877;48.246;9.220;2024-03-23T03:27:27;93402.25;;;3.18;100.00
73600;BME280;61877;48.246;9.220;2024-03-23T03:29:53;93393.22;;;3.27;100.00
73600;BME280;61877;48.246;9.220;2024-03-23T03:32:20;93385.59;;;3.34;100.00
73600;BME280;61877;48.246;9.220;2024-03-23T03:34:46;93390.91;;;3.34;100.00
73600;BME280;61877;48.246;9.220;2024-03-23T03:37:12;93379.97;;;3.27;100.00
73600;BME280;61877;48.246;9.220;2024-03-23T03:39:37;93379.97;;;3.27;100.00
73600;BME280;61877;48.246;9.220;2024-03-23T03:42:03;93379.94;;;3.19;100.00
73600;BME280;61877;48.246;9.220;2024-03-23T03:44:29;93367.94;;;3.13;100.00
73600;BME280;61877;48.246;9.220;2024-03-23T03:46:54;93374.00;;;3.05;100.00
73600;BME280;61877;48.246;9.220;2024-03-23T03:49:21;93376.50;;;3.10;100.00
73600;BME280;61877;48.246;9.220;2024-03-23T03:51:47;93376.00;;;2.99;100.00
73600;BME280;61877;48.246;9.220;2024-03-23T03:54:13;93364.88;;;2.89;100.00
73600;BME280;61877;48.246;9.220;2024-03-23T03:56:38;93365.47;;;2.77;100.00
73600;BME280;61877;48.246;9.220;2024-03-23T03:59:05;93359.72;;;2.75;100.00
73600;BME280;61877;48.246;9.220;2024-03-23T04:01:30;93354.09;;;2.68;100.00
73600;BME280;61877;48.246;9.220;2024-03-23T04:03:56;93344.88;;;2.65;100.00
73600;BME280;61877;48.246;9.220;2024-03-23T04:06:23;93344.56;;;2.58;100.00
73600;BME280;61877;48.246;9.220;2024-03-23T04:08:49;93339.25;;;2.58;100.00
73600;BME280;61877;48.246;9.220;2024-03-23T04:11:15;93331.91;;;2.55;100.00
73600;BME280;61877;48.246;9.220;2024-03-23T04:13:40;93332.81;;;2.51;100.00
73600;BME280;61877;48.246;9.220;2024-03-23T04:16:06;93318.16;;;2.45;100.00
73600;BME280;61877;48.246;9.220;2024-03-23T04:18:32;93320.03;;;2.44;100.00
73600;BME280;61877;48.246;9.220;2024-03-23T04:20:57;93307.72;;;2.40;100.00
73600;BME280;61877;48.246;9.220;2024-03-23T04:23:24;93300.53;;;2.32;100.00
73600;BME280;61877;48.246;9.220;2024-03-23T04:25:50;93285.72;;;2.31;100.00
73600;BME280;61877;48.246;9.220;2024-03-23T04:28:16;93285.25;;;2.29;100.00
73600;BME280;61877;48.246;9.220;2024-03-23T04:30:41;93272.78;;;2.29;100.00
73600;BME280;61877;48.246;9.220;2024-03-23T04:33:07;93270.00;;;2.34;100.00
73600;BME280;61877;48.246;9.220;2024-03-23T04:35:33;93264.13;;;2.46;100.00
73600;BME280;61877;48.246;9.220;2024-03-23T04:37:59;93262.00;;;2.56;100.00
73600;BME280;61877;48.246;9.220;2024-03-23T04:40:26;93265.28;;;2.71;100.00
73600;BME280;61877;48.246;9.220;2024-03-23T04:42:51;93261.28;;;2.82;100.00
73600;BME280;61877;48.246;9.220;2024-03-23T04:45:17;93263.94;;;2.99;100.00
73600;BME280;61877;48.246;9.220;2024-03-23T04:47:43;93262.56;;;3.10;100.00
73600;BME280;61877;48.246;9.220;2024-03-23T04:50:09;93254.63;;;3.18;100.00
73600;BME280;61877;48.246;9.220;2024-03-23T04:52:35;93250.88;;;3.36;100.00
73600;BME280;61877;48.246;9.220;2024-03-23T04:55:00;93255.25;;;3.41;100.00
73600;BME280;61877;48.246;9.220;2024-03-23T04:57:27;93250.56;;;3.38;100.00
73600;BME280;61877;48.246;9.220;2024-03-23T04:59:53;93248.38;;;3.40;100.00
73600;BME280;61877;48.246;9.220;2024-03-23T05:02:19;93235.13;;;3.40;100.00
73600;BME280;61877;48.246;9.220;2024-03-23T05:04:45;93227.63;;;3.42;100.00
73600;BME280;61877;48.246;9.220;2024-03-23T05:07:10;93219.50;;;3.38;100.00
73600;BME280;61877;48.246;9.220;2024-03-23T05:09:36;93212.66;;;3.37;100.00
73600;BME280;61877;48.246;9.220;2024-03-23T05:12:02;93216.69;;;3.43;100.00
73600;BME280;61877;48.246;9.220;2024-03-23T05:14:29;93218.28;;;3.44;100.00
73600;BME280;61877;48.246;9.220;2024-03-23T05:16:55;93239.00;;;3.51;100.00
73600;BME280;61877;48.246;9.220;2024-03-23T05:19:21;93244.31;;;3.59;100.00
73600;BME280;61877;48.246;9.220;2024-03-23T05:21:47;93234.63;;;3.63;100.00
73600;BME280;61877;48.246;9.220;2024-03-23T05:24:12;93224.94;;;4.22;100.00
73600;BME280;61877;48.246;9.220;2024-03-23T05:26:38;93217.50;;;4.45;100.00
73600;BME280;61877;48.246;9.220;2024-03-23T05:29:04;93208.72;;;4.82;100.00
73600;BME280;61877;48.246;9.220;2024-03-23T05:31:31;93207.28;;;5.05;100.00
73600;BME280;61877;48.246;9.220;2024-03-23T05:33:57;93195.41;;;5.44;100.00
73600;BME280;61877;48.246;9.220;2024-03-23T05:36:22;93182.09;;;5.97;100.00
73600;BME280;61877;48.246;9.220;2024-03-23T05:38:48;93195.50;;;6.12;100.00
73600;BME280;61877;48.246;9.220;2024-03-23T05:41:14;93195.41;;;6.21;100.00
73600;BME280;61877;48.246;9.220;2024-03-23T05:43:39;93196.09;;;6.42;100.00
73600;BME280;61877;48.246;9.220;2024-03-23T05:46:05;93178.22;;;6.42;100.00
73600;BME280;61877;48.246;9.220;2024-03-23T05:48:32;93176.13;;;6.48;100.00
73600;BME280;61877;48.246;9.220;2024-03-23T05:50:58;93187.66;;;6.52;100.00
73600;BME280;61877;48.246;9.220;2024-03-23T05:53:25;93192.00;;;6.57;100.00
73600;BME280;61877;48.246;9.220;2024-03-23T05:55:51;93199.34;;;6.60;100.00
73600;BME280;61877;48.246;9.220;2024-03-23T05:58:17;93236.53;;;6.68;100.00
73600;BME280;61877;48.246;9.220;2024-03-23T06:00:43;93275.84;;;6.71;100.00
73600;BME280;61877;48.246;9.220;2024-03-23T06:03:09;93302.59;;;6.87;100.00
73600;BME280;61877;48.246;9.220;2024-03-23T06:05:36;93298.38;;;7.10;100.00
73600;BME280;61877;48.246;9.220;2024-03-23T06:08:02;93291.78;;;7.43;100.00
73600;BME280;61877;48.246;9.220;2024-03-23T06:10:28;93294.22;;;7.60;100.00
73600;BME280;61877;48.246;9.220;2024-03-23T06:12:54;93254.47;;;7.71;100.00
73600;BME280;61877;48.246;9.220;2024-03-23T06:15:21;93264.47;;;7.74;100.00
73600;BME280;61877;48.246;9.220;2024-03-23T06:17:47;93280.59;;;7.77;100.00
73600;BME280;61877;48.246;9.220;2024-03-23T06:20:14;93282.25;;;7.82;100.00
73600;BME280;61877;48.246;9.220;2024-03-23T06:22:41;93290.00;;;7.87;100.00
73600;BME280;61877;48.246;9.220;2024-03-23T06:25:07;93279.09;;;7.92;100.00
73600;BME280;61877;48.246;9.220;2024-03-23T06:27:33;93292.88;;;7.94;100.00
73600;BME280;61877;48.246;9.220;2024-03-23T06:29:59;93307.34;;;7.93;100.00
73600;BME280;61877;48.246;9.220;2024-03-23T06:32:25;93318.81;;;7.94;100.00
73600;BME280;61877;48.246;9.220;2024-03-23T06:34:50;93335.41;;;7.87;100.00
73600;BME280;61877;48.246;9.220;2024-03-23T06:37:16;93316.72;;;7.87;100.00
73600;BME280;61877;48.246;9.220;2024-03-23T06:39:45;93289.13;;;7.83;100.00
73600;BME280;61877;48.246;9.220;2024-03-23T06:42:11;93296.78;;;7.84;100.00
73600;BME280;61877;48.246;9.220;2024-03-23T06:44:37;93294.38;;;7.79;100.00
73600;BME280;61877;48.246;9.220;2024-03-23T06:47:03;93304.63;;;7.77;100.00
73600;BME280;61877;48.246;9.220;2024-03-23T06:49:28;93315.72;;;7.79;100.00
73600;BME280;61877;48.246;9.220;2024-03-23T06:51:54;93301.97;;;7.77;100.00
73600;BME280;61877;48.246;9.220;2024-03-23T06:54:20;93331.84;;;7.83;100.00
73600;BME280;61877;48.246;9.220;2024-03-23T06:56:47;93323.72;;;7.79;100.00
73600;BME280;61877;48.246;9.220;2024-03-23T06:59:13;93328.31;;;7.79;100.00
73600;BME280;61877;48.246;9.220;2024-03-23T07:01:39;93346.78;;;7.72;100.00
73600;BME280;61877;48.246;9.220;2024-03-23T07:04:05;93345.56;;;7.69;100.00
73600;BME280;61877;48.246;9.220;2024-03-23T07:06:30;93360.81;;;7.69;100.00
73600;BME280;61877;48.246;9.220;2024-03-23T07:08:56;93357.25;;;7.65;100.00
73600;BME280;61877;48.246;9.220;2024-03-23T07:11:22;93349.59;;;7.63;100.00
73600;BME280;61877;48.246;9.220;2024-03-23T07:13:51;93352.47;;;7.58;100.00
73600;BME280;61877;48.246;9.220;2024-03-23T07:16:17;93350.25;;;7.60;100.00
73600;BME280;61877;48.246;9.220;2024-03-23T07:18:43;93361.50;;;7.66;100.00
73600;BME280;61877;48.246;9.220;2024-03-23T07:21:08;93382.94;;;7.69;100.00
73600;BME280;61877;48.246;9.220;2024-03-23T07:23:34;93408.97;;;7.60;100.00
73600;BME280;61877;48.246;9.220;2024-03-23T07:26:00;93411.06;;;7.43;100.00
73600;BME280;61877;48.246;9.220;2024-03-23T07:28:26;93432.22;;;7.36;100.00
73600;BME280;61877;48.246;9.220;2024-03-23T07:31:05;93447.97;;;7.17;100.00
73600;BME280;61877;48.246;9.220;2024-03-23T07:33:31;93427.09;;;7.19;100.00
73600;BME280;61877;48.246;9.220;2024-03-23T07:35:57;93418.19;;;7.27;100.00
73600;BME280;61877;48.246;9.220;2024-03-23T07:38:23;93428.75;;;7.35;100.00
73600;BME280;61877;48.246;9.220;2024-03-23T07:40:49;93445.78;;;7.31;100.00
73600;BME280;61877;48.246;9.220;2024-03-23T07:43:15;93448.88;;;7.45;100.00
73600;BME280;61877;48.246;9.220;2024-03-23T07:45:41;93453.78;;;7.67;100.00
73600;BME280;61877;48.246;9.220;2024-03-23T07:48:08;93438.97;;;7.94;100.00
73600;BME280;61877;48.246;9.220;2024-03-23T07:50:36;93440.22;;;7.84;100.00
73600;BME280;61877;48.246;9.220;2024-03-23T07:53:02;93446.47;;;7.64;100.00
73600;BME280;61877;48.246;9.220;2024-03-23T07:55:28;93440.53;;;7.46;100.00
73600;BME280;61877;48.246;9.220;2024-03-23T07:57:53;93452.78;;;7.35;100.00
73600;BME280;61877;48.246;9.220;2024-03-23T08:00:20;93460.22;;;7.30;100.00
73600;BME280;61877;48.246;9.220;2024-03-23T08:02:45;93467.91;;;7.43;100.00
73600;BME280;61877;48.246;9.220;2024-03-23T08:05:12;93466.81;;;7.56;97.85
73600;BME280;61877;48.246;9.220;2024-03-23T08:07:38;93466.34;;;7.66;100.00
73600;BME280;61877;48.246;9.220;2024-03-23T08:10:04;93470.94;;;7.54;100.00
73600;BME280;61877;48.246;9.220;2024-03-23T08:12:30;93479.00;;;7.33;99.91
73600;BME280;61877;48.246;9.220;2024-03-23T08:14:56;93519.56;;;7.27;100.00
73600;BME280;61877;48.246;9.220;2024-03-23T08:17:22;93507.84;;;7.52;100.00
73600;BME280;61877;48.246;9.220;2024-03-23T08:19:48;93518.75;;;7.83;100.00
73600;BME280;61877;48.246;9.220;2024-03-23T08:22:15;93526.44;;;7.84;99.12
73600;BME280;61877;48.246;9.220;2024-03-23T08:24:40;93534.78;;;8.19;100.00
73600;BME280;61877;48.246;9.220;2024-03-23T08:27:06;93542.38;;;8.17;96.59
73600;BME280;61877;48.246;9.220;2024-03-23T08:29:32;93542.00;;;7.95;99.03
73600;BME280;61877;48.246;9.220;2024-03-23T08:31:57;93566.50;;;7.40;99.32
73600;BME280;61877;48.246;9.220;2024-03-23T08:34:23;93579.28;;;6.81;99.38
73600;BME280;61877;48.246;9.220;2024-03-23T08:36:49;93587.06;;;6.45;100.00
73600;BME280;61877;48.246;9.220;2024-03-23T08:39:16;93598.50;;;6.45;100.00
73600;BME280;61877;48.246;9.220;2024-03-23T08:41:42;93612.84;;;6.32;100.00
73600;BME280;61877;48.246;9.220;2024-03-23T08:44:07;93610.09;;;6.20;100.00
73600;BME280;61877;48.246;9.220;2024-03-23T08:46:33;93608.13;;;6.00;100.00
73600;BME280;61877;48.246;9.220;2024-03-23T08:49:01;93610.22;;;5.95;100.00
73600;BME280;61877;48.246;9.220;2024-03-23T08:51:27;93631.03;;;5.93;99.78
73600;BME280;61877;48.246;9.220;2024-03-23T08:53:53;93638.66;;;6.11;100.00
73600;BME280;61877;48.246;9.220;2024-03-23T08:56:41;93646.13;;;6.18;100.00
73600;BME280;61877;48.246;9.220;2024-03-23T08:59:13;93650.38;;;6.10;100.00
73600;BME280;61877;48.246;9.220;2024-03-23T09:01:42;93650.19;;;6.15;100.00
73600;BME280;61877;48.246;9.220;2024-03-23T09:04:11;93662.16;;;6.01;100.00
73600;BME280;61877;48.246;9.220;2024-03-23T09:09:26;93659.81;;;6.08;100.00
73600;BME280;61877;48.246;9.220;2024-03-23T09:11:56;93660.31;;;6.30;100.00
73600;BME280;61877;48.246;9.220;2024-03-23T09:14:33;93682.16;;;6.15;100.00
73600;BME280;61877;48.246;9.220;2024-03-23T09:16:59;93674.84;;;6.04;99.64
73600;BME280;61877;48.246;9.220;2024-03-23T09:19:32;93681.41;;;6.15;97.74
73600;BME280;61877;48.246;9.220;2024-03-23T09:21:58;93674.28;;;6.27;94.74
73600;BME280;61877;48.246;9.220;2024-03-23T09:24:33;93652.50;;;6.25;95.93
73600;BME280;61877;48.246;9.220;2024-03-23T09:27:03;93661.75;;;6.28;94.18
73600;BME280;61877;48.246;9.220;2024-03-23T09:29:29;93658.28;;;6.36;98.27
73600;BME280;61877;48.246;9.220;2024-03-23T09:31:55;93660.31;;;6.30;91.73
73600;BME280;61877;48.246;9.220;2024-03-23T09:34:21;93659.28;;;6.23;94.03
73600;BME280;61877;48.246;9.220;2024-03-23T09:36:47;93675.75;;;6.16;91.38
73600;BME280;61877;48.246;9.220;2024-03-23T09:39:15;93673.19;;;6.28;90.81
73600;BME280;61877;48.246;9.220;2024-03-23T09:41:41;93671.81;;;6.81;87.26
73600;BME280;61877;48.246;9.220;2024-03-23T09:44:08;93659.53;;;7.29;89.46
73600;BME280;61877;48.246;9.220;2024-03-23T09:46:34;93679.69;;;7.18;86.76
73600;BME280;61877;48.246;9.220;2024-03-23T09:49:00;93663.72;;;6.98;81.18
73600;BME280;61877;48.246;9.220;2024-03-23T09:51:26;93682.19;;;7.44;83.72
73600;BME280;61877;48.246;9.220;2024-03-23T09:53:52;93669.03;;;7.39;81.61
73600;BME280;61877;48.246;9.220;2024-03-23T09:56:18;93654.97;;;7.50;79.59
73600;BME280;61877;48.246;9.220;2024-03-23T09:58:46;93646.59;;;7.72;78.59
73600;BME280;61877;48.246;9.220;2024-03-23T10:01:13;93656.41;;;7.93;74.80
73600;BME280;61877;48.246;9.220;2024-03-23T10:03:43;93661.44;;;7.94;81.32
73600;BME280;61877;48.246;9.220;2024-03-23T10:06:08;93658.00;;;8.06;80.77
73600;BME280;61877;48.246;9.220;2024-03-23T10:08:34;93662.59;;;8.17;77.82
73600;BME280;61877;48.246;9.220;2024-03-23T10:11:12;93636.22;;;8.28;76.65
73600;BME280;61877;48.246;9.220;2024-03-23T10:13:41;93643.75;;;8.02;76.51
73600;BME280;61877;48.246;9.220;2024-03-23T10:16:07;93661.56;;;8.10;76.00
73600;BME280;61877;48.246;9.220;2024-03-23T10:18:38;93648.38;;;8.25;76.06
73600;BME280;61877;48.246;9.220;2024-03-23T10:21:08;93656.09;;;8.06;69.85
73600;BME280;61877;48.246;9.220;2024-03-23T10:23:34;93644.13;;;8.24;72.61
73600;BME280;61877;48.246;9.220;2024-03-23T10:26:13;93643.63;;;7.98;72.12
73600;BME280;61877;48.246;9.220;2024-03-23T10:28:51;93666.69;;;8.15;71.70
73600;BME280;61877;48.246;9.220;2024-03-23T10:31:16;93646.63;;;8.65;69.74
73600;BME280;61877;48.246;9.220;2024-03-23T10:33:45;93652.94;;;8.37;68.36
73600;BME280;61877;48.246;9.220;2024-03-23T10:36:13;93650.94;;;8.58;72.20
73600;BME280;61877;48.246;9.220;2024-03-23T10:38:40;93657.97;;;8.38;67.24
73600;BME280;61877;48.246;9.220;2024-03-23T10:41:07;93653.94;;;8.56;66.16
73600;BME280;61877;48.246;9.220;2024-03-23T10:43:34;93655.38;;;9.42;67.17
73600;BME280;61877;48.246;9.220;2024-03-23T10:46:00;93648.44;;;9.13;66.97
73600;BME280;61877;48.246;9.220;2024-03-23T10:48:25;93657.94;;;9.38;65.35
73600;BME280;61877;48.246;9.220;2024-03-23T10:50:53;93651.81;;;9.93;64.82
73600;BME280;61877;48.246;9.220;2024-03-23T10:53:21;93680.75;;;9.60;60.24
73600;BME280;61877;48.246;9.220;2024-03-23T10:55:47;93654.03;;;9.91;60.85
73600;BME280;61877;48.246;9.220;2024-03-23T10:58:13;93632.53;;;9.60;59.62
73600;BME280;61877;48.246;9.220;2024-03-23T11:00:39;93655.59;;;9.92;58.20
73600;BME280;61877;48.246;9.220;2024-03-23T11:03:34;93671.47;;;10.12;54.94
73600;BME280;61877;48.246;9.220;2024-03-23T11:06:02;93663.00;;;9.83;55.31
73600;BME280;61877;48.246;9.220;2024-03-23T11:08:36;93665.09;;;10.17;53.88
73600;BME280;61877;48.246;9.220;2024-03-23T11:11:18;93661.28;;;10.33;52.07
73600;BME280;61877;48.246;9.220;2024-03-23T11:16:31;93662.97;;;11.04;52.54
73600;BME280;61877;48.246;9.220;2024-03-23T11:22:53;93675.25;;;11.05;51.54
73600;BME280;61877;48.246;9.220;2024-03-23T11:25:31;93661.25;;;10.96;50.31
73600;BME280;61877;48.246;9.220;2024-03-23T11:31:58;93695.19;;;10.41;49.99
73600;BME280;61877;48.246;9.220;2024-03-23T11:38:19;93685.44;;;10.65;50.24
73600;BME280;61877;48.246;9.220;2024-03-23T11:41:02;93684.03;;;9.41;51.05
73600;BME280;61877;48.246;9.220;2024-03-23T11:43:48;93686.91;;;8.96;52.39
73600;BME280;61877;48.246;9.220;2024-03-23T11:46:41;93701.03;;;9.21;53.67
73600;BME280;61877;48.246;9.220;2024-03-23T11:52:06;93741.06;;;8.57;66.20
73600;BME280;61877;48.246;9.220;2024-03-23T11:54:41;93777.41;;;7.72;72.86
73600;BME280;61877;48.246;9.220;2024-03-23T11:57:10;93768.22;;;6.91;78.47
73600;BME280;61877;48.246;9.220;2024-03-23T11:59:38;93759.94;;;6.46;78.95
73600;BME280;61877;48.246;9.220;2024-03-23T12:02:08;93768.72;;;7.14;80.80
73600;BME280;61877;48.246;9.220;2024-03-23T12:04:34;93764.69;;;7.28;82.70
73600;BME280;61877;48.246;9.220;2024-03-23T12:07:14;93775.13;;;6.84;80.59
73600;BME280;61877;48.246;9.220;2024-03-23T12:10:04;93772.31;;;6.42;80.30
73600;BME280;61877;48.246;9.220;2024-03-23T12:12:33;93778.47;;;6.34;82.24
73600;BME280;61877;48.246;9.220;2024-03-23T12:15:04;93774.00;;;6.09;83.52
73600;BME280;61877;48.246;9.220;2024-03-23T12:17:34;93772.81;;;6.74;83.55
73600;BME280;61877;48.246;9.220;2024-03-23T12:20:25;93774.88;;;6.22;85.37
73600;BME280;61877;48.246;9.220;2024-03-23T12:22:50;93773.97;;;6.18;83.69
73600;BME280;61877;48.246;9.220;2024-03-23T12:25:19;93784.38;;;6.48;88.07
73600;BME280;61877;48.246;9.220;2024-03-23T12:27:44;93785.88;;;7.25;81.45
73600;BME280;61877;48.246;9.220;2024-03-23T12:30:11;93770.56;;;7.83;78.65
73600;BME280;61877;48.246;9.220;2024-03-23T12:32:37;93763.84;;;8.75;76.68
73600;BME280;61877;48.246;9.220;2024-03-23T12:35:09;93779.75;;;8.72;75.95
73600;BME280;61877;48.246;9.220;2024-03-23T12:38:08;93755.78;;;8.63;74.91
73600;BME280;61877;48.246;9.220;2024-03-23T12:40:39;93736.41;;;9.14;71.10
73600;BME280;61877;48.246;9.220;2024-03-23T12:43:08;93732.63;;;8.79;70.21
73600;BME280;61877;48.246;9.220;2024-03-23T12:45:34;93747.03;;;9.51;71.45
73600;BME280;61877;48.246;9.220;2024-03-23T12:48:08;93743.84;;;8.49;69.73
73600;BME280;61877;48.246;9.220;2024-03-23T12:50:34;93726.88;;;9.41;68.73
73600;BME280;61877;48.246;9.220;2024-03-23T12:53:00;93733.50;;;8.83;64.49
73600;BME280;61877;48.246;9.220;2024-03-23T12:55:26;93715.72;;;10.06;64.54
73600;BME280;61877;48.246;9.220;2024-03-23T12:57:53;93713.56;;;10.71;61.20
73600;BME280;61877;48.246;9.220;2024-03-23T13:00:20;93716.31;;;10.59;57.04
73600;BME280;61877;48.246;9.220;2024-03-23T13:02:55;93709.34;;;10.11;59.46
73600;BME280;61877;48.246;9.220;2024-03-23T13:05:43;93709.41;;;10.73;59.34
73600;BME280;61877;48.246;9.220;2024-03-23T13:08:48;93712.66;;;11.83;61.34
73600;BME280;61877;48.246;9.220;2024-03-23T13:11:13;93706.16;;;12.67;53.05
73600;BME280;61877;48.246;9.220;2024-03-23T13:13:40;93711.09;;;12.20;54.05
73600;BME280;61877;48.246;9.220;2024-03-23T13:16:06;93696.16;;;12.03;51.99
73600;BME280;61877;48.246;9.220;2024-03-23T13:18:32;93697.72;;;10.50;52.54
73600;BME280;61877;48.246;9.220;2024-03-23T13:20:58;93679.34;;;10.83;52.99
73600;BME280;61877;48.246;9.220;2024-03-23T13:23:24;93676.22;;;11.66;50.88
73600;BME280;61877;48.246;9.220;2024-03-23T13:25:50;93675.78;;;13.15;49.04
73600;BME280;61877;48.246;9.220;2024-03-23T13:28:16;93669.78;;;13.51;45.94
73600;BME280;61877;48.246;9.220;2024-03-23T13:30:51;93668.75;;;13.07;46.84
73600;BME280;61877;48.246;9.220;2024-03-23T13:33:17;93654.56;;;12.61;46.19
73600;BME280;61877;48.246;9.220;2024-03-23T13:35:49;93668.63;;;11.91;46.23
73600;BME280;61877;48.246;9.220;2024-03-23T13:38:15;93654.53;;;11.59;45.85
73600;BME280;61877;48.246;9.220;2024-03-23T13:40:49;93646.16;;;13.41;45.61
73600;BME280;61877;48.246;9.220;2024-03-23T13:43:15;93652.56;;;13.92;43.63
73600;BME280;61877;48.246;9.220;2024-03-23T13:45:41;93659.19;;;15.26;41.47
73600;BME280;61877;48.246;9.220;2024-03-23T13:48:08;93649.13;;;14.29;40.73
73600;BME280;61877;48.246;9.220;2024-03-23T13:50:34;93644.06;;;13.90;41.85
73600;BME280;61877;48.246;9.220;2024-03-23T13:53:03;93661.69;;;11.32;47.27
73600;BME280;61877;48.246;9.220;2024-03-23T13:55:29;93647.09;;;11.14;46.52
73600;BME280;61877;48.246;9.220;2024-03-23T13:57:55;93639.41;;;11.51;46.88
73600;BME280;61877;48.246;9.220;2024-03-23T14:00:21;93635.41;;;13.15;43.33
73600;BME280;61877;48.246;9.220;2024-03-23T14:02:47;93624.53;;;11.53;46.03
73600;BME280;61877;48.246;9.220;2024-03-23T14:05:14;93630.56;;;9.72;51.07
73600;BME280;61877;48.246;9.220;2024-03-23T14:07:43;93652.22;;;9.52;55.59
73600;BME280;61877;48.246;9.220;2024-03-23T14:10:09;93664.59;;;9.04;58.93
73600;BME280;61877;48.246;9.220;2024-03-23T14:12:55;93647.66;;;8.16;66.15
73600;BME280;61877;48.246;9.220;2024-03-23T14:15:30;93658.09;;;10.59;62.03
73600;BME280;61877;48.246;9.220;2024-03-23T14:17:57;93620.00;;;11.38;57.36